Time;durP1;ratioP1;P1;durP2;ratioP2;P2;SDS_P1;SDS_P2;PMS_P1;PMS_P2;Temp;Humidity;BMP_temperature;BMP_pressure;BME280_temperature;BME280_humidity;BME280_pressure;Samples;Min_cycle;Max_cycle;Signal;HPM_P1;HPM_P2
2023/12/05 00:01:34;;;;;;;32.90;20.20;;;;;;;7.78;44.46;102822.48;107020;1258;22531;-67
2023/12/05 00:04:01;;;;;;;27.90;19.50;;;;;;;7.77;44.36;102826.80;106937;1257;22543;-68
2023/12/05 00:06:29;;;;;;;26.60;19.00;;;;;;;7.77;44.19;102828.67;106731;1269;22546;-67
2023/12/05 00:08:57;;;;;;;27.20;18.70;;;;;;;7.77;44.04;102835.08;106997;1255;22535;-68
2023/12/05 00:11:25;;;;;;;21.00;15.70;;;;;;;7.77;43.87;102834.55;106860;1258;22527;-67
2023/12/05 00:13:53;;;;;;;26.90;19.30;;;;;;;7.76;43.88;102829.02;106808;1261;24242;-68
2023/12/05 00:16:21;;;;;;;29.10;18.90;;;;;;;7.76;43.81;102827.11;106847;1258;22521;-67
2023/12/05 00:18:50;;;;;;;30.60;20.40;;;;;;;7.77;43.76;102829.88;106708;1261;22560;-67
2023/12/05 00:21:17;;;;;;;23.20;15.90;;;;;;;7.76;43.83;102834.86;106849;1258;22576;-67
2023/12/05 00:23:45;;;;;;;18.90;14.10;;;;;;;7.73;43.94;102839.98;106786;1261;25356;-67
2023/12/05 00:26:13;;;;;;;16.60;12.60;;;;;;;7.70;44.07;102840.27;106795;1269;22533;-67
2023/12/05 00:28:41;;;;;;;18.70;13.10;;;;;;;7.64;44.04;102839.44;106464;1264;22542;-67
2023/12/05 00:31:08;;;;;;;15.40;12.10;;;;;;;7.61;44.09;102833.83;106147;1261;1003677;-67
2023/12/05 00:33:37;;;;;;;17.50;11.70;;;;;;;7.59;44.06;102833.27;106850;1270;22834;-67
2023/12/05 00:36:06;;;;;;;13.50;10.40;;;;;;;7.59;43.99;102827.40;106912;1255;25252;-67
2023/12/05 00:38:33;;;;;;;15.10;10.90;;;;;;;7.60;43.87;102830.70;106048;1269;1002980;-67
2023/12/05 00:41:01;;;;;;;13.90;10.40;;;;;;;7.61;43.74;102836.95;106100;1256;1003519;-67
2023/12/05 00:43:29;;;;;;;15.60;11.60;;;;;;;7.64;43.50;102835.44;106110;1257;1003229;-67
2023/12/05 00:45:57;;;;;;;15.80;11.60;;;;;;;7.64;43.34;102827.53;106810;1258;24298;-67
2023/12/05 00:48:25;;;;;;;18.50;12.40;;;;;;;7.63;43.42;102824.04;106869;1257;22516;-67
2023/12/05 00:50:53;;;;;;;16.50;11.70;;;;;;;7.63;43.46;102827.66;106759;1269;22526;-67
2023/12/05 00:53:20;;;;;;;13.60;11.00;;;;;;;7.63;43.54;102828.86;106843;1258;22547;-67
2023/12/05 00:55:48;;;;;;;14.40;11.40;;;;;;;7.65;43.88;102825.97;106781;1263;23008;-67
2023/12/05 00:58:16;;;;;;;14.30;11.10;;;;;;;7.66;44.02;102825.14;106909;1270;22522;-66
2023/12/05 01:00:44;;;;;;;15.10;12.10;;;;;;;7.66;44.03;102823.95;106124;1268;1003610;-67
2023/12/05 01:03:12;;;;;;;11.90;9.70;;;;;;;7.68;44.03;102823.98;106842;1257;25216;-67
2023/12/05 01:05:40;;;;;;;13.00;9.50;;;;;;;7.70;44.05;102820.56;106842;1261;22523;-68
2023/12/05 01:08:08;;;;;;;13.80;9.80;;;;;;;7.72;44.05;102814.04;106076;1258;1002930;-67
2023/12/05 01:10:36;;;;;;;18.70;10.50;;;;;;;7.74;44.11;102811.69;106186;1256;1002897;-67
2023/12/05 01:13:06;;;;;;;12.20;10.20;;;;;;;7.76;44.07;102804.11;106844;1258;22524;-67
2023/12/05 01:15:33;;;;;;;12.00;9.50;;;;;;;7.76;44.04;102803.80;106239;1254;1003734;-68
2023/12/05 01:18:02;;;;;;;12.10;9.50;;;;;;;7.76;44.11;102804.64;106910;1258;25330;-67
2023/12/05 01:20:31;;;;;;;12.00;9.20;;;;;;;7.77;44.07;102808.98;106265;1255;1002450;-67
2023/12/05 01:22:59;;;;;;;13.80;10.20;;;;;;;7.78;44.21;102800.55;106845;1254;22537;-67
2023/12/05 01:28:52;;;;;;;12.60;9.50;;;;;;;7.86;44.45;102795.35;103717;1297;545727;-67
2023/12/05 01:31:20;;;;;;;11.10;8.80;;;;;;;7.84;44.50;102796.69;105142;1274;1003458;-67
2023/12/05 01:33:47;;;;;;;11.50;8.70;;;;;;;7.86;44.51;102791.73;105885;1271;25371;-67
2023/12/05 01:36:15;;;;;;;11.10;9.30;;;;;;;7.89;44.53;102788.87;105888;1267;22544;-66
2023/12/05 01:38:43;;;;;;;13.40;9.50;;;;;;;7.89;44.51;102788.68;105925;1269;25311;-67
2023/12/05 01:41:11;;;;;;;11.70;9.30;;;;;;;7.88;44.69;102793.14;105867;1273;22545;-67
2023/12/05 01:43:39;;;;;;;10.70;8.60;;;;;;;7.87;44.72;102793.13;106685;1261;318928;-67
2023/12/05 01:46:07;;;;;;;10.10;7.00;;;;;;;7.86;44.45;102789.66;106759;1258;22566;-67
2023/12/05 01:48:34;;;;;;;10.50;7.90;;;;;;;7.87;44.64;102779.66;106731;1261;25266;-67
2023/12/05 01:51:03;;;;;;;7.90;6.00;;;;;;;7.88;44.54;102781.59;106054;1254;1003040;-67
2023/12/05 01:53:31;;;;;;;7.70;5.90;;;;;;;7.92;44.55;102774.76;106834;1260;22526;-67
2023/12/05 01:55:59;;;;;;;7.40;5.60;;;;;;;7.98;44.42;102771.95;106815;1271;22801;-66
2023/12/05 01:58:26;;;;;;;8.90;5.60;;;;;;;8.02;44.46;102763.39;106763;1258;22549;-67
2023/12/05 02:00:54;;;;;;;7.80;6.20;;;;;;;8.10;44.47;102758.90;106067;1260;1002996;-67
2023/12/05 02:03:24;;;;;;;7.90;6.20;;;;;;;8.18;44.51;102757.50;106816;1257;22529;-67
2023/12/05 02:05:53;;;;;;;7.50;6.20;;;;;;;8.26;44.31;102758.37;106939;1268;22527;-67
2023/12/05 02:08:21;;;;;;;6.30;5.00;;;;;;;8.11;44.60;102756.50;106903;1253;22569;-66
2023/12/05 02:10:49;;;;;;;5.90;5.10;;;;;;;8.10;44.59;102759.08;106141;1257;1002983;-67
2023/12/05 02:13:17;;;;;;;9.10;5.90;;;;;;;8.16;44.58;102759.02;106128;1256;1002460;-66
2023/12/05 02:15:47;;;;;;;8.10;6.50;;;;;;;8.41;44.21;102756.05;106841;1254;22557;-68
2023/12/05 02:18:18;;;;;;;7.90;5.40;;;;;;;8.40;44.17;102754.14;106828;1256;22573;-66
2023/12/05 02:21:09;;;;;;;8.20;5.50;;;;;;;8.40;44.23;102753.45;106844;1253;22580;-66
2023/12/05 02:24:01;;;;;;;7.00;5.70;;;;;;;8.46;44.18;102748.73;106755;1257;25291;-66
2023/12/05 02:26:51;;;;;;;8.50;5.80;;;;;;;8.51;43.91;102750.55;106839;1267;22514;-66
2023/12/05 02:29:19;;;;;;;6.40;4.80;;;;;;;8.56;43.45;102742.33;106881;1252;22526;-66
2023/12/05 02:31:47;;;;;;;6.30;5.20;;;;;;;8.59;43.17;102742.91;106916;1255;22530;-67
2023/12/05 02:34:15;;;;;;;5.50;4.60;;;;;;;8.62;42.96;102743.83;106125;1255;1002963;-66
2023/12/05 02:37:20;;;;;;;7.20;5.80;;;;;;;8.64;42.57;102741.79;106792;1269;22530;-66
2023/12/05 02:39:54;;;;;;;6.10;5.10;;;;;;;8.64;42.56;102739.90;106826;1257;22521;-66
2023/12/05 02:42:23;;;;;;;5.10;4.60;;;;;;;8.64;42.53;102740.41;106062;1260;1002991;-65
2023/12/05 02:44:51;;;;;;;6.30;5.10;;;;;;;8.64;42.55;102736.09;106859;1254;24221;-65
2023/12/05 02:47:20;;;;;;;7.90;5.20;;;;;;;8.65;42.69;102737.65;106089;1269;1002762;-66
2023/12/05 02:49:48;;;;;;;6.20;5.00;;;;;;;8.66;42.85;102738.19;105991;1257;1003316;-66
2023/12/05 02:52:20;;;;;;;6.10;5.20;;;;;;;8.78;42.72;102733.56;106830;1257;22955;-66
2023/12/05 02:54:48;;;;;;;5.90;4.90;;;;;;;8.97;42.28;102734.06;106959;1258;22527;-66
2023/12/05 02:57:16;;;;;;;5.80;4.70;;;;;;;8.95;42.44;102734.71;106150;1256;1003425;-65
2023/12/05 02:59:43;;;;;;;6.30;4.40;;;;;;;8.76;42.79;102734.90;106080;1257;1003505;-68
2023/12/05 03:02:11;;;;;;;6.10;4.40;;;;;;;8.79;42.81;102729.06;106212;1254;1003498;-66
2023/12/05 03:04:42;;;;;;;4.70;4.20;;;;;;;8.84;42.50;102729.17;106887;1268;22645;-66
2023/12/05 03:07:11;;;;;;;5.30;4.20;;;;;;;8.85;42.39;102722.96;106874;1260;22541;-66
2023/12/05 03:09:38;;;;;;;6.00;4.60;;;;;;;8.91;42.25;102722.19;106041;1257;1002635;-66
2023/12/05 03:12:06;;;;;;;4.40;4.00;;;;;;;8.95;42.21;102718.98;106142;1257;1003781;-65
2023/12/05 03:14:34;;;;;;;4.80;4.10;;;;;;;8.98;41.78;102716.06;106917;1253;22916;-65
2023/12/05 03:17:02;;;;;;;6.70;4.20;;;;;;;9.03;41.59;102713.54;106918;1258;22536;-66
2023/12/05 03:19:30;;;;;;;4.70;4.10;;;;;;;9.25;41.39;102714.59;106883;1272;22533;-65
2023/12/05 03:21:58;;;;;;;4.50;3.80;;;;;;;9.35;41.09;102708.67;106968;1257;22541;-66
2023/12/05 03:24:26;;;;;;;4.60;3.80;;;;;;;9.35;41.13;102702.10;106918;1257;22633;-66
2023/12/05 03:26:54;;;;;;;5.90;4.50;;;;;;;9.35;41.17;102701.58;106814;1257;22522;-66
2023/12/05 03:29:22;;;;;;;5.80;4.40;;;;;;;9.37;41.25;102697.78;107025;1254;22562;-66
2023/12/05 03:31:50;;;;;;;5.40;3.70;;;;;;;9.41;41.09;102695.94;106828;1269;22539;-65
2023/12/05 03:34:18;;;;;;;4.30;3.60;;;;;;;9.45;41.20;102692.17;106356;1257;1003043;-66
2023/12/05 03:36:45;;;;;;;4.90;3.90;;;;;;;9.49;41.20;102693.27;106837;1258;25291;-66
2023/12/05 03:39:14;;;;;;;5.30;3.80;;;;;;;9.53;41.42;102688.83;106878;1270;22530;-66
2023/12/05 03:41:47;;;;;;;4.70;3.50;;;;;;;9.59;41.14;102691.50;106162;1257;1002922;-66
2023/12/05 03:44:15;;;;;;;4.20;3.80;;;;;;;9.40;40.97;102693.67;106166;1255;1016335;-65
2023/12/05 03:46:42;;;;;;;4.20;3.40;;;;;;;9.20;41.35;102695.64;106841;1268;22530;-66
2023/12/05 03:49:10;;;;;;;3.80;3.20;;;;;;;9.17;41.17;102694.73;106702;1255;22557;-65
2023/12/05 03:51:38;;;;;;;4.10;3.30;;;;;;;9.36;40.83;102686.84;106085;1259;1003176;-66
2023/12/05 03:54:07;;;;;;;5.10;3.20;;;;;;;9.40;40.70;102689.34;106092;1257;1003278;-65
2023/12/05 03:56:35;;;;;;;3.90;3.20;;;;;;;9.39;40.60;102685.70;105980;1257;1002506;-64
2023/12/05 03:59:03;;;;;;;5.20;3.20;;;;;;;9.40;40.60;102687.60;106124;1255;1003065;-65
2023/12/05 04:01:31;;;;;;;4.10;3.40;;;;;;;9.41;40.49;102691.42;106960;1256;22531;-66
2023/12/05 04:03:59;;;;;;;3.20;2.90;;;;;;;9.40;40.23;102690.73;106785;1268;22550;-66
2023/12/05 04:06:27;;;;;;;3.30;2.90;;;;;;;9.39;39.98;102686.05;106759;1265;22601;-66
2023/12/05 04:08:55;;;;;;;3.70;3.10;;;;;;;9.39;39.87;102682.23;106804;1257;22530;-65
2023/12/05 04:11:30;;;;;;;4.00;3.60;;;;;;;9.40;39.72;102679.63;106883;1256;22540;-66
2023/12/05 04:13:59;;;;;;;3.90;3.40;;;;;;;9.41;39.41;102680.36;106827;1257;24289;-66
2023/12/05 04:16:26;;;;;;;5.30;3.80;;;;;;;9.40;39.58;102680.67;106798;1256;24283;-66
2023/12/05 04:18:54;;;;;;;3.90;3.20;;;;;;;9.41;39.49;102678.79;106857;1256;22639;-66
2023/12/05 04:21:25;;;;;;;4.20;3.10;;;;;;;9.42;39.59;102686.42;106880;1257;22520;-67
2023/12/05 04:23:54;;;;;;;3.70;3.30;;;;;;;9.41;39.75;102687.29;106828;1257;22537;-65
2023/12/05 04:26:21;;;;;;;3.20;2.90;;;;;;;9.41;40.01;102686.23;106924;1259;24268;-66
2023/12/05 04:28:49;;;;;;;4.10;3.30;;;;;;;9.39;39.78;102678.08;106871;1256;24440;-66
2023/12/05 04:31:17;;;;;;;5.30;3.60;;;;;;;9.40;39.70;102670.80;106080;1268;1003621;-66
2023/12/05 04:33:45;;;;;;;4.50;3.10;;;;;;;9.39;39.56;102667.86;106060;1254;1003490;-65
2023/12/05 04:36:15;;;;;;;3.40;2.90;;;;;;;9.39;39.73;102662.84;106974;1268;25244;-66
2023/12/05 04:38:43;;;;;;;3.80;3.40;;;;;;;9.39;39.77;102655.22;106765;1261;22548;-66
2023/12/05 04:41:11;;;;;;;3.80;3.20;;;;;;;9.39;39.91;102651.74;106768;1255;22549;-65
2023/12/05 04:43:39;;;;;;;4.60;3.60;;;;;;;9.42;39.81;102648.14;106823;1256;22538;-66
2023/12/05 04:46:06;;;;;;;3.70;3.10;;;;;;;9.46;39.90;102648.89;106882;1258;22519;-66
2023/12/05 04:48:34;;;;;;;3.60;3.30;;;;;;;9.49;40.02;102646.84;106667;1257;22556;-64
2023/12/05 04:51:02;;;;;;;3.20;2.80;;;;;;;9.52;39.81;102649.84;106822;1268;22527;-65
2023/12/05 04:53:30;;;;;;;6.10;3.40;;;;;;;9.55;39.56;102652.81;106869;1254;22553;-66
2023/12/05 04:55:58;;;;;;;3.20;2.90;;;;;;;9.57;39.68;102653.19;106670;1261;22782;-67
2023/12/05 04:58:28;;;;;;;3.30;3.00;;;;;;;9.58;39.61;102649.73;106858;1268;22533;-67
2023/12/05 05:00:56;;;;;;;3.90;3.30;;;;;;;9.59;39.91;102642.46;106222;1257;1003041;-65
2023/12/05 05:03:25;;;;;;;3.30;3.00;;;;;;;9.58;39.95;102651.46;106842;1255;22531;-66
2023/12/05 05:05:53;;;;;;;5.20;3.10;;;;;;;9.56;39.96;102657.16;106811;1271;22530;-67
2023/12/05 05:08:20;;;;;;;4.50;3.10;;;;;;;9.61;39.93;102661.90;106769;1261;22526;-64
2023/12/05 05:10:48;;;;;;;3.80;3.00;;;;;;;9.44;40.08;102663.25;106843;1255;22545;-67
2023/12/05 05:13:16;;;;;;;4.40;3.40;;;;;;;9.42;40.06;102654.55;106131;1256;1003541;-66
2023/12/05 05:15:44;;;;;;;4.30;3.10;;;;;;;9.46;40.16;102655.30;106854;1258;22530;-65
2023/12/05 05:18:12;;;;;;;4.40;3.70;;;;;;;9.48;40.00;102655.48;106045;1260;1002620;-67
2023/12/05 05:20:40;;;;;;;4.80;3.40;;;;;;;9.50;39.84;102654.82;106780;1260;25345;-65
2023/12/05 05:23:09;;;;;;;3.80;3.10;;;;;;;9.51;39.51;102659.69;106844;1257;22523;-65
2023/12/05 05:25:37;;;;;;;4.90;3.30;;;;;;;9.53;39.53;102659.71;106835;1259;24287;-66
2023/12/05 05:28:05;;;;;;;3.70;3.10;;;;;;;9.51;39.60;102662.64;105994;1269;1003065;-65
2023/12/05 05:30:32;;;;;;;3.50;3.20;;;;;;;9.51;39.39;102665.06;106754;1274;25293;-66
2023/12/05 05:33:00;;;;;;;3.30;3.00;;;;;;;9.52;39.58;102665.42;106785;1255;22541;-66
2023/12/05 05:35:28;;;;;;;3.30;2.90;;;;;;;9.52;39.65;102665.23;106691;1258;22526;-65
2023/12/05 05:37:56;;;;;;;6.70;3.20;;;;;;;9.51;39.55;102655.54;106619;1259;24224;-66
2023/12/05 05:40:25;;;;;;;3.40;2.70;;;;;;;9.51;39.72;102651.55;106371;1262;22525;-66
2023/12/05 05:42:53;;;;;;;3.20;2.90;;;;;;;9.51;40.07;102648.27;106357;1275;22529;-65
2023/12/05 05:45:21;;;;;;;3.80;2.70;;;;;;;9.51;40.26;102640.80;106532;1272;22540;-65
2023/12/05 05:47:49;;;;;;;3.80;3.20;;;;;;;9.59;40.29;102641.95;105738;1261;1003557;-66
2023/12/05 05:50:18;;;;;;;4.10;3.10;;;;;;;9.86;39.68;102644.00;106451;1260;22526;-66
2023/12/05 05:52:47;;;;;;;5.20;3.00;;;;;;;9.97;39.71;102638.56;105890;1256;1002913;-66
2023/12/05 05:55:15;;;;;;;4.30;3.20;;;;;;;10.03;39.85;102634.30;105847;1254;1002840;-66
2023/12/05 05:57:43;;;;;;;4.70;3.10;;;;;;;10.09;40.02;102634.35;106680;1268;22533;-66
2023/12/05 06:00:12;;;;;;;3.40;2.80;;;;;;;10.16;39.94;102634.47;106528;1261;23095;-65
2023/12/05 06:02:39;;;;;;;3.10;2.80;;;;;;;10.22;39.83;102632.45;106658;1256;24249;-67
2023/12/05 06:05:07;;;;;;;4.00;3.10;;;;;;;10.28;39.62;102630.06;106645;1254;25237;-67
2023/12/05 06:07:36;;;;;;;3.50;3.20;;;;;;;10.32;39.27;102625.60;106827;1256;22526;-65
2023/12/05 06:10:04;;;;;;;3.40;3.00;;;;;;;10.34;39.09;102627.01;106953;1269;24224;-67
2023/12/05 06:12:33;;;;;;;4.30;3.30;;;;;;;10.37;39.17;102633.64;106056;1255;1002811;-67
2023/12/05 06:15:00;;;;;;;4.00;3.10;;;;;;;10.42;39.23;102636.62;106296;1253;1002949;-66
2023/12/05 06:17:28;;;;;;;4.30;3.30;;;;;;;10.45;39.43;102640.98;105997;1261;1003597;-66
2023/12/05 06:19:56;;;;;;;4.20;3.30;;;;;;;10.47;39.10;102639.27;106871;1257;25365;-65
2023/12/05 06:22:24;;;;;;;4.20;3.10;;;;;;;10.50;39.17;102646.05;106808;1258;22546;-66
2023/12/05 06:24:52;;;;;;;3.80;3.10;;;;;;;10.52;39.11;102652.16;106867;1259;25383;-66
2023/12/05 06:27:20;;;;;;;4.00;3.30;;;;;;;10.54;39.06;102649.23;106897;1256;22627;-66
2023/12/05 06:29:48;;;;;;;3.50;3.10;;;;;;;10.57;38.99;102652.72;106092;1260;1003103;-67
2023/12/05 06:32:16;;;;;;;3.80;2.90;;;;;;;10.58;39.13;102650.30;106123;1252;1002957;-65
2023/12/05 06:34:43;;;;;;;4.40;2.90;;;;;;;10.62;38.76;102649.11;106025;1269;1003687;-66
2023/12/05 06:37:11;;;;;;;4.70;3.40;;;;;;;10.67;38.74;102651.40;106846;1257;25046;-66
2023/12/05 06:39:39;;;;;;;4.60;3.60;;;;;;;10.71;38.97;102647.27;106879;1258;25367;-65
2023/12/05 06:42:07;;;;;;;4.40;3.40;;;;;;;10.74;39.07;102641.73;106758;1260;24230;-66
2023/12/05 06:44:34;;;;;;;6.00;3.60;;;;;;;10.76;39.23;102641.40;106839;1258;22526;-65
2023/12/05 06:50:26;;;;;;;3.20;2.90;;;;;;;10.86;39.34;102642.70;103711;1305;545266;-65
2023/12/05 06:52:59;;;;;;;4.60;3.50;;;;;;;10.85;39.41;102639.73;105989;1266;22542;-66
2023/12/05 06:55:27;;;;;;;4.10;3.20;;;;;;;10.87;39.36;102634.37;105802;1274;22590;-66
2023/12/05 06:57:55;;;;;;;4.20;3.50;;;;;;;10.90;39.51;102630.22;105947;1270;22552;-65
2023/12/05 07:00:24;;;;;;;4.10;3.50;;;;;;;10.94;39.68;102628.69;105897;1269;22549;-66
2023/12/05 07:02:52;;;;;;;5.20;3.70;;;;;;;11.01;40.10;102627.01;105915;1270;22559;-66
2023/12/05 07:05:20;;;;;;;5.00;3.60;;;;;;;11.08;39.98;102622.70;105991;1279;22540;-65
2023/12/05 07:07:48;;;;;;;6.30;4.00;;;;;;;11.15;39.73;102623.27;106330;1265;24406;-66
2023/12/05 07:10:15;;;;;;;4.00;3.60;;;;;;;11.21;39.91;102615.65;106210;1268;22539;-65
2023/12/05 07:12:43;;;;;;;5.30;3.80;;;;;;;11.28;39.99;102616.73;106671;1259;22533;-66
2023/12/05 07:15:11;;;;;;;4.60;3.70;;;;;;;11.35;39.85;102618.14;106741;1256;22688;-65
2023/12/05 07:17:39;;;;;;;4.40;3.70;;;;;;;11.40;40.15;102616.27;106523;1263;22649;-64
2023/12/05 07:20:07;;;;;;;4.60;3.40;;;;;;;11.46;39.94;102611.08;106682;1271;22530;-66
2023/12/05 07:22:35;;;;;;;5.00;3.40;;;;;;;11.51;39.82;102605.36;106606;1265;22564;-64
2023/12/05 07:25:04;;;;;;;5.90;3.30;;;;;;;11.53;39.60;102601.88;106789;1259;22524;-65
2023/12/05 07:27:32;;;;;;;5.10;4.00;;;;;;;11.56;39.79;102600.68;106693;1258;22529;-66
2023/12/05 07:30:00;;;;;;;4.60;3.50;;;;;;;11.59;39.83;102604.17;106588;1263;22528;-66
2023/12/05 07:32:27;;;;;;;4.60;3.60;;;;;;;11.61;39.90;102605.21;106708;1258;22541;-66
2023/12/05 07:34:55;;;;;;;5.20;3.20;;;;;;;11.64;39.70;102608.52;106644;1259;22543;-65
2023/12/05 07:37:23;;;;;;;3.60;3.20;;;;;;;11.68;39.90;102606.84;106437;1257;25239;-65
2023/12/05 07:39:52;;;;;;;4.80;3.50;;;;;;;11.69;39.46;102608.40;105770;1256;1015723;-66
2023/12/05 07:42:19;;;;;;;6.50;4.00;;;;;;;11.68;39.25;102610.66;106692;1260;24839;-67
2023/12/05 07:44:47;;;;;;;5.40;3.60;;;;;;;11.67;39.60;102608.58;106698;1258;22566;-66
2023/12/05 07:47:15;;;;;;;5.40;3.70;;;;;;;11.67;39.77;102606.48;106726;1272;22533;-66
2023/12/05 07:49:46;;;;;;;5.40;3.50;;;;;;;11.66;39.67;102597.24;106665;1260;25323;-66
2023/12/05 07:52:14;;;;;;;4.70;3.70;;;;;;;11.65;39.71;102595.50;106715;1259;24246;-66
2023/12/05 07:54:42;;;;;;;4.60;3.30;;;;;;;11.65;39.71;102593.59;106681;1257;22541;-66
2023/12/05 07:57:09;;;;;;;4.80;3.80;;;;;;;11.66;39.51;102598.98;106359;1264;23913;-66
2023/12/05 07:59:37;;;;;;;4.50;3.10;;;;;;;11.63;39.76;102593.58;106490;1255;22533;-65
2023/12/05 08:02:05;;;;;;;5.30;3.40;;;;;;;11.63;39.77;102591.66;106318;1271;22530;-65
2023/12/05 08:04:34;;;;;;;3.80;3.40;;;;;;;11.63;39.45;102595.84;106397;1258;22524;-65
2023/12/05 08:07:03;;;;;;;4.10;3.20;;;;;;;11.64;39.45;102600.20;106518;1259;25380;-64
2023/12/05 08:09:31;;;;;;;8.10;3.70;;;;;;;11.65;39.45;102607.16;106602;1275;25379;-64
2023/12/05 08:11:59;;;;;;;4.80;3.90;;;;;;;11.67;39.30;102608.40;106586;1275;23614;-66
2023/12/05 08:14:27;;;;;;;5.60;4.00;;;;;;;11.68;39.62;102611.88;106471;1273;22624;-66
2023/12/05 08:16:55;;;;;;;5.00;3.90;;;;;;;11.70;39.47;102611.17;106314;1274;23875;-66
2023/12/05 08:19:23;;;;;;;3.80;3.30;;;;;;;11.71;39.20;102604.41;106583;1278;22559;-66
2023/12/05 08:21:51;;;;;;;6.10;4.00;;;;;;;11.71;39.21;102600.77;105601;1263;1015098;-65
2023/12/05 08:24:19;;;;;;;4.50;3.50;;;;;;;11.70;39.33;102600.94;106446;1274;25393;-65
2023/12/05 08:26:47;;;;;;;4.70;3.50;;;;;;;11.42;40.19;102612.97;106595;1278;24448;-67
2023/12/05 08:29:16;;;;;;;5.20;3.90;;;;;;;11.31;40.41;102617.77;105653;1273;1003564;-66
2023/12/05 08:31:44;;;;;;;5.20;3.60;;;;;;;11.32;40.61;102615.35;106417;1275;22668;-66
2023/12/05 08:34:12;;;;;;;5.70;3.50;;;;;;;11.32;40.91;102609.27;106422;1261;22539;-66
2023/12/05 08:36:46;;;;;;;4.60;3.70;;;;;;;11.34;40.80;102603.02;106228;1268;22565;-65
2023/12/05 08:39:14;;;;;;;5.80;3.50;;;;;;;11.37;40.58;102599.05;106575;1275;22553;-66
2023/12/05 08:41:42;;;;;;;4.80;3.20;;;;;;;11.37;40.23;102588.95;106547;1259;22550;-66
2023/12/05 08:44:10;;;;;;;7.50;3.70;;;;;;;11.36;40.41;102582.52;105884;1259;1003179;-65
2023/12/05 08:46:38;;;;;;;5.20;4.10;;;;;;;11.38;40.57;102575.23;105583;1267;1003087;-66
2023/12/05 08:49:05;;;;;;;5.60;3.60;;;;;;;11.41;40.47;102571.27;106663;1257;22520;-65
2023/12/05 08:51:33;;;;;;;6.20;4.00;;;;;;;11.43;40.39;102565.02;106758;1256;22542;-66
2023/12/05 08:54:01;;;;;;;5.10;3.60;;;;;;;11.68;39.99;102555.90;106523;1256;22549;-65
2023/12/05 08:56:29;;;;;;;4.70;3.90;;;;;;;11.82;39.72;102549.15;106661;1256;24223;-65
2023/12/05 08:58:57;;;;;;;5.40;3.60;;;;;;;11.86;39.57;102548.81;106688;1268;24215;-66
2023/12/05 09:01:25;;;;;;;5.00;3.70;;;;;;;11.87;39.43;102545.52;106965;1268;25298;-66
2023/12/05 09:03:54;;;;;;;6.30;4.00;;;;;;;11.89;39.68;102550.21;106867;1267;22524;-66
2023/12/05 09:06:22;;;;;;;4.20;3.50;;;;;;;11.91;39.85;102554.04;106874;1255;22551;-65
2023/12/05 09:08:50;;;;;;;8.00;3.70;;;;;;;11.95;40.00;102560.30;107270;1257;22526;-68
2023/12/05 09:11:17;;;;;;;4.60;3.80;;;;;;;11.97;39.68;102557.17;106831;1257;22530;-64
2023/12/05 09:13:45;;;;;;;4.30;3.50;;;;;;;11.99;39.96;102551.27;106881;1254;22569;-67
2023/12/05 09:16:13;;;;;;;5.70;4.00;;;;;;;12.01;39.75;102542.56;107193;1258;25459;-64
2023/12/05 09:18:41;;;;;;;6.20;4.30;;;;;;;12.02;39.80;102537.70;107287;1253;25565;-67
2023/12/05 09:21:09;;;;;;;4.70;3.40;;;;;;;12.01;39.71;102534.04;107293;1253;25246;-67
2023/12/05 09:23:38;;;;;;;6.80;4.10;;;;;;;12.00;39.56;102537.34;107455;1256;25376;-67
2023/12/05 09:26:06;;;;;;;6.10;3.70;;;;;;;11.99;39.98;102536.30;105991;1267;1003951;-67
2023/12/05 09:28:34;;;;;;;4.60;3.50;;;;;;;11.97;39.86;102535.95;106805;1256;22537;-65
2023/12/05 09:31:04;;;;;;;6.00;3.90;;;;;;;12.03;39.98;102528.48;106526;1257;1003604;-66
2023/12/05 09:33:32;;;;;;;4.90;3.50;;;;;;;12.16;39.53;102527.79;107042;1256;24222;-67
2023/12/05 09:36:00;;;;;;;5.20;3.70;;;;;;;12.20;39.44;102519.95;107161;1267;22530;-66
2023/12/05 09:38:28;;;;;;;5.80;3.80;;;;;;;12.24;39.46;102510.04;105995;1275;1003620;-68
2023/12/05 09:40:56;;;;;;;4.00;3.20;;;;;;;12.29;39.56;102501.69;106244;1267;1002950;-67
2023/12/05 09:43:24;;;;;;;4.80;3.70;;;;;;;12.33;39.26;102500.29;106928;1257;23863;-67
2023/12/05 09:46:00;;;;;;;4.90;3.70;;;;;;;12.35;39.10;102493.49;107213;1256;23904;-66
2023/12/05 09:48:32;;;;;;;5.30;4.00;;;;;;;12.37;38.98;102504.27;107096;1272;24376;-67
2023/12/05 09:51:00;;;;;;;6.80;3.60;;;;;;;12.37;38.92;102508.80;106828;1255;22534;-62
2023/12/05 09:53:27;;;;;;;4.90;3.80;;;;;;;12.37;38.93;102505.48;106970;1256;24192;-67
2023/12/05 09:55:55;;;;;;;4.80;3.80;;;;;;;12.19;39.10;102501.34;106979;1259;22551;-66
2023/12/05 09:58:23;;;;;;;3.60;3.20;;;;;;;12.04;39.19;102504.99;106982;1259;25301;-67
2023/12/05 10:00:52;;;;;;;6.00;3.10;;;;;;;12.01;38.81;102502.06;106384;1270;1003308;-66
2023/12/05 10:03:19;;;;;;;6.90;3.90;;;;;;;12.00;38.61;102488.64;107017;1255;22526;-67
2023/12/05 10:05:48;;;;;;;3.80;3.10;;;;;;;12.00;38.89;102493.52;106969;1271;25345;-66
2023/12/05 10:08:16;;;;;;;5.20;3.00;;;;;;;12.01;38.99;102487.79;107030;1257;24350;-64
2023/12/05 10:10:45;;;;;;;4.80;2.90;;;;;;;12.04;38.99;102477.17;107003;1260;22536;-66
2023/12/05 10:13:13;;;;;;;4.70;3.30;;;;;;;12.06;39.03;102473.86;107026;1269;22523;-66
2023/12/05 10:15:42;;;;;;;4.90;3.50;;;;;;;12.07;38.93;102476.83;106782;1259;25349;-65
2023/12/05 10:18:10;;;;;;;4.40;3.40;;;;;;;12.07;38.78;102473.16;106813;1272;24251;-65
2023/12/05 10:20:39;;;;;;;4.50;3.40;;;;;;;12.03;38.88;102472.30;106841;1262;24225;-63
2023/12/05 10:23:07;;;;;;;5.20;3.60;;;;;;;12.05;39.30;102472.81;106115;1270;1002888;-66
2023/12/05 10:25:35;;;;;;;5.00;3.50;;;;;;;12.05;39.51;102470.04;105906;1269;1003126;-66
2023/12/05 10:28:05;;;;;;;5.30;3.70;;;;;;;12.05;39.57;102469.34;106764;1259;25284;-64
2023/12/05 10:30:34;;;;;;;4.80;3.30;;;;;;;12.05;39.99;102460.12;106751;1256;23130;-66
2023/12/05 10:33:10;;;;;;;5.00;3.40;;;;;;;12.04;40.60;102458.55;106577;1271;22582;-65
2023/12/05 10:35:38;;;;;;;5.30;4.00;;;;;;;12.03;40.74;102463.27;106685;1270;23871;-65
2023/12/05 10:38:14;;;;;;;4.00;3.20;;;;;;;12.00;40.79;102462.20;105476;1269;1002981;-65
2023/12/05 10:40:55;;;;;;;5.80;3.40;;;;;;;11.96;41.01;102453.87;106643;1257;26496;-65
2023/12/05 10:43:24;;;;;;;9.20;3.90;;;;;;;11.97;41.01;102438.55;106727;1271;22533;-66
2023/12/05 10:45:52;;;;;;;4.30;3.70;;;;;;;11.99;41.24;102431.77;106773;1270;22532;-65
2023/12/05 10:48:21;;;;;;;3.60;2.80;;;;;;;12.08;41.33;102428.63;106643;1259;24747;-65
2023/12/05 10:50:51;;;;;;;4.70;3.00;;;;;;;12.11;41.33;102420.62;106837;1252;22781;-67
2023/12/05 10:53:19;;;;;;;8.60;3.40;;;;;;;12.14;41.36;102415.40;106929;1272;24371;-66
2023/12/05 10:55:47;;;;;;;8.10;3.60;;;;;;;12.15;41.47;102413.13;106267;1272;1016511;-66
2023/12/05 10:58:15;;;;;;;4.20;2.90;;;;;;;12.16;41.77;102410.17;107131;1268;24225;-65
2023/12/05 11:00:43;;;;;;;4.20;3.00;;;;;;;12.16;41.81;102413.65;107067;1269;22648;-65
2023/12/05 11:03:12;;;;;;;4.70;3.60;;;;;;;12.16;41.83;102412.08;106613;1259;1004215;-65
2023/12/05 11:05:40;;;;;;;4.20;3.30;;;;;;;12.15;41.84;102408.27;107056;1256;22528;-64
2023/12/05 11:08:08;;;;;;;5.90;3.30;;;;;;;12.16;41.83;102402.70;106416;1253;1003064;-65
2023/12/05 11:10:36;;;;;;;5.20;3.30;;;;;;;12.18;41.46;102406.69;106978;1257;22538;-64
2023/12/05 11:13:04;;;;;;;3.50;3.20;;;;;;;12.19;41.42;102406.69;107193;1258;22574;-65
2023/12/05 11:15:35;;;;;;;6.00;3.60;;;;;;;12.21;41.25;102408.08;106692;1269;22526;-64
2023/12/05 11:18:44;;;;;;;4.80;3.30;;;;;;;12.23;41.04;102395.73;106720;1256;25574;-65
2023/12/05 11:21:21;;;;;;;5.00;3.30;;;;;;;12.28;40.84;102391.36;107065;1263;24238;-65
2023/12/05 11:24:04;;;;;;;6.50;3.70;;;;;;;12.32;40.63;102397.63;106897;1259;22528;-65
2023/12/05 11:27:17;;;;;;;12.50;3.60;;;;;;;12.33;40.65;102394.83;106650;1259;25278;-65
2023/12/05 11:30:11;;;;;;;3.70;3.40;;;;;;;12.37;40.59;102394.47;106171;1280;25356;-65